Terminal Aerodrome Forecast
Issued by NWS

Home | Current Version | Previous Version | Text Only | Print | Product List | Glossary On
Versions: 1 2 3 4 5 6 7 8 9 10 11 12 13 14 15 16 17 18 19 20 21 22 23 24
000
FTUS43 KDLH 261120
TAFHYR
TAF
KHYR 261120Z 2612/2712 VRB03KT P6SM BKN060
     FM261700 18007KT P6SM BKN060
     FM262100 19008KT P6SM VCTS BKN030CB
     FM270100 19005KT P6SM VCSH BKN015
     FM270500 00000KT P6SM SCT010
     FM271000 00000KT 3SM BR SCT010=

USA.gov is the U.S. government's official web portal to all federal, state and local government web resources and services.